sensor_id;sensor_type;location;lat;lon;timestamp;pressure;altitude;pressure_sealevel;temperature
68952;BMP180;56000;51.146;17.112;2023-03-01T00:00:59;101662.20;;;-2.52
68952;BMP180;56000;51.146;17.112;2023-03-01T00:03:33;101663.00;;;-2.60
68952;BMP180;56000;51.146;17.112;2023-03-01T00:06:08;101666.00;;;-2.62
68952;BMP180;56000;51.146;17.112;2023-03-01T00:08:41;101666.60;;;-2.70
68952;BMP180;56000;51.146;17.112;2023-03-01T00:11:17;101663.80;;;-2.70
68952;BMP180;56000;51.146;17.112;2023-03-01T00:13:54;101669.80;;;-2.70
68952;BMP180;56000;51.146;17.112;2023-03-01T00:16:29;101666.20;;;-2.70
68952;BMP180;56000;51.146;17.112;2023-03-01T00:19:04;101665.40;;;-2.70
68952;BMP180;56000;51.146;17.112;2023-03-01T00:21:37;101665.00;;;-2.80
68952;BMP180;56000;51.146;17.112;2023-03-01T00:24:11;101658.40;;;-2.80
68952;BMP180;56000;51.146;17.112;2023-03-01T00:26:44;101664.80;;;-2.90
68952;BMP180;56000;51.146;17.112;2023-03-01T00:29:18;101659.40;;;-2.90
68952;BMP180;56000;51.146;17.112;2023-03-01T00:31:51;101662.00;;;-3.00
68952;BMP180;56000;51.146;17.112;2023-03-01T00:34:24;101659.20;;;-3.04
68952;BMP180;56000;51.146;17.112;2023-03-01T00:36:58;101655.00;;;-3.10
68952;BMP180;56000;51.146;17.112;2023-03-01T00:39:37;101651.60;;;-3.10
68952;BMP180;56000;51.146;17.112;2023-03-01T00:42:10;101649.00;;;-3.20
68952;BMP180;56000;51.146;17.112;2023-03-01T00:44:43;101642.80;;;-3.20
68952;BMP180;56000;51.146;17.112;2023-03-01T00:47:16;101636.00;;;-3.20
68952;BMP180;56000;51.146;17.112;2023-03-01T00:49:50;101635.20;;;-3.30
68952;BMP180;56000;51.146;17.112;2023-03-01T00:52:23;101633.00;;;-3.30
68952;BMP180;56000;51.146;17.112;2023-03-01T00:54:56;101623.60;;;-3.32
68952;BMP180;56000;51.146;17.112;2023-03-01T00:57:30;101621.60;;;-3.40
68952;BMP180;56000;51.146;17.112;2023-03-01T01:00:05;101625.00;;;-3.40
68952;BMP180;56000;51.146;17.112;2023-03-01T01:02:38;101623.40;;;-3.40
68952;BMP180;56000;51.146;17.112;2023-03-01T01:05:12;101629.20;;;-3.40
68952;BMP180;56000;51.146;17.112;2023-03-01T01:07:45;101635.20;;;-3.48
68952;BMP180;56000;51.146;17.112;2023-03-01T01:10:19;101633.00;;;-3.50
68952;BMP180;56000;51.146;17.112;2023-03-01T01:12:52;101633.60;;;-3.50
68952;BMP180;56000;51.146;17.112;2023-03-01T01:15:26;101637.40;;;-3.52
68952;BMP180;56000;51.146;17.112;2023-03-01T01:17:59;101630.40;;;-3.56
68952;BMP180;56000;51.146;17.112;2023-03-01T01:20:33;101620.80;;;-3.60
68952;BMP180;56000;51.146;17.112;2023-03-01T01:23:09;101610.00;;;-3.60
68952;BMP180;56000;51.146;17.112;2023-03-01T01:25:42;101608.40;;;-3.60
68952;BMP180;56000;51.146;17.112;2023-03-01T01:28:15;101613.00;;;-3.60
68952;BMP180;56000;51.146;17.112;2023-03-01T01:30:49;101613.00;;;-3.60
68952;BMP180;56000;51.146;17.112;2023-03-01T01:33:23;101605.00;;;-3.60
68952;BMP180;56000;51.146;17.112;2023-03-01T01:35:56;101605.80;;;-3.60
68952;BMP180;56000;51.146;17.112;2023-03-01T01:38:29;101600.80;;;-3.60
68952;BMP180;56000;51.146;17.112;2023-03-01T01:41:03;101610.00;;;-3.60
68952;BMP180;56000;51.146;17.112;2023-03-01T01:43:40;101615.40;;;-3.60
68952;BMP180;56000;51.146;17.112;2023-03-01T01:46:24;101611.20;;;-3.68
68952;BMP180;56000;51.146;17.112;2023-03-01T01:49:03;101605.40;;;-3.70
68952;BMP180;56000;51.146;17.112;2023-03-01T01:51:42;101598.80;;;-3.70
68952;BMP180;56000;51.146;17.112;2023-03-01T01:54:20;101587.40;;;-3.70
68952;BMP180;56000;51.146;17.112;2023-03-01T01:56:58;101585.00;;;-3.70
68952;BMP180;56000;51.146;17.112;2023-03-01T01:59:33;101589.00;;;-3.70
68952;BMP180;56000;51.146;17.112;2023-03-01T02:02:06;101586.40;;;-3.80
68952;BMP180;56000;51.146;17.112;2023-03-01T02:04:40;101581.80;;;-3.80
68952;BMP180;56000;51.146;17.112;2023-03-01T02:07:17;101582.60;;;-3.80
68952;BMP180;56000;51.146;17.112;2023-03-01T02:09:52;101585.20;;;-3.80
68952;BMP180;56000;51.146;17.112;2023-03-01T02:12:27;101584.60;;;-3.80
68952;BMP180;56000;51.146;17.112;2023-03-01T02:15:00;101588.40;;;-3.80
68952;BMP180;56000;51.146;17.112;2023-03-01T02:17:34;101582.40;;;-3.80
68952;BMP180;56000;51.146;17.112;2023-03-01T02:20:16;101585.20;;;-3.84
68952;BMP180;56000;51.146;17.112;2023-03-01T02:22:53;101575.60;;;-3.90
68952;BMP180;56000;51.146;17.112;2023-03-01T02:25:36;101578.80;;;-3.90
68952;BMP180;56000;51.146;17.112;2023-03-01T02:28:21;101581.00;;;-3.90
68952;BMP180;56000;51.146;17.112;2023-03-01T02:30:55;101581.60;;;-3.90
68952;BMP180;56000;51.146;17.112;2023-03-01T02:33:46;101581.60;;;-3.90
68952;BMP180;56000;51.146;17.112;2023-03-01T02:36:21;101587.40;;;-3.90
68952;BMP180;56000;51.146;17.112;2023-03-01T02:38:58;101582.20;;;-3.90
68952;BMP180;56000;51.146;17.112;2023-03-01T02:41:38;101588.60;;;-3.90
68952;BMP180;56000;51.146;17.112;2023-03-01T02:44:12;101588.40;;;-3.94
68952;BMP180;56000;51.146;17.112;2023-03-01T02:46:52;101596.80;;;-4.00
68952;BMP180;56000;51.146;17.112;2023-03-01T02:49:29;101595.20;;;-4.00
68952;BMP180;56000;51.146;17.112;2023-03-01T02:52:36;101584.20;;;-4.00
68952;BMP180;56000;51.146;17.112;2023-03-01T02:55:15;101592.80;;;-4.00
68952;BMP180;56000;51.146;17.112;2023-03-01T02:57:50;101594.60;;;-4.02
68952;BMP180;56000;51.146;17.112;2023-03-01T03:00:26;101591.80;;;-4.10
68952;BMP180;56000;51.146;17.112;2023-03-01T03:03:01;101595.00;;;-4.10
68952;BMP180;56000;51.146;17.112;2023-03-01T03:05:35;101594.00;;;-4.10
68952;BMP180;56000;51.146;17.112;2023-03-01T03:08:08;101595.20;;;-4.10
68952;BMP180;56000;51.146;17.112;2023-03-01T03:10:43;101592.00;;;-4.10
68952;BMP180;56000;51.146;17.112;2023-03-01T03:13:17;101582.60;;;-4.10
68952;BMP180;56000;51.146;17.112;2023-03-01T03:15:51;101586.60;;;-4.10
68952;BMP180;56000;51.146;17.112;2023-03-01T03:18:25;101587.20;;;-4.10
68952;BMP180;56000;51.146;17.112;2023-03-01T03:20:58;101591.00;;;-4.00
68952;BMP180;56000;51.146;17.112;2023-03-01T03:23:31;101586.20;;;-3.98
68952;BMP180;56000;51.146;17.112;2023-03-01T03:26:05;101585.00;;;-3.90
68952;BMP180;56000;51.146;17.112;2023-03-01T03:28:38;101578.60;;;-3.96
68952;BMP180;56000;51.146;17.112;2023-03-01T03:31:11;101579.80;;;-4.00
68952;BMP180;56000;51.146;17.112;2023-03-01T03:33:44;101582.80;;;-4.00
68952;BMP180;56000;51.146;17.112;2023-03-01T03:36:21;101571.40;;;-4.06
68952;BMP180;56000;51.146;17.112;2023-03-01T03:38:55;101568.20;;;-4.10
68952;BMP180;56000;51.146;17.112;2023-03-01T03:41:28;101563.20;;;-4.12
68952;BMP180;56000;51.146;17.112;2023-03-01T03:44:01;101563.40;;;-4.20
68952;BMP180;56000;51.146;17.112;2023-03-01T03:46:34;101565.80;;;-4.20
68952;BMP180;56000;51.146;17.112;2023-03-01T03:49:07;101554.60;;;-4.20
68952;BMP180;56000;51.146;17.112;2023-03-01T03:51:40;101553.20;;;-4.30
68952;BMP180;56000;51.146;17.112;2023-03-01T03:54:13;101550.00;;;-4.28
68952;BMP180;56000;51.146;17.112;2023-03-01T03:56:46;101546.40;;;-4.30
68952;BMP180;56000;51.146;17.112;2023-03-01T03:59:19;101549.20;;;-4.30
68952;BMP180;56000;51.146;17.112;2023-03-01T04:01:52;101546.80;;;-4.30
68952;BMP180;56000;51.146;17.112;2023-03-01T04:04:25;101544.40;;;-4.30
68952;BMP180;56000;51.146;17.112;2023-03-01T04:06:58;101541.80;;;-4.30
68952;BMP180;56000;51.146;17.112;2023-03-01T04:09:31;101542.00;;;-4.30
68952;BMP180;56000;51.146;17.112;2023-03-01T04:12:04;101548.00;;;-4.30
68952;BMP180;56000;51.146;17.112;2023-03-01T04:14:38;101544.00;;;-4.30
68952;BMP180;56000;51.146;17.112;2023-03-01T04:17:11;101544.40;;;-4.30
68952;BMP180;56000;51.146;17.112;2023-03-01T04:19:44;101544.60;;;-4.30
68952;BMP180;56000;51.146;17.112;2023-03-01T04:22:20;101542.40;;;-4.30
68952;BMP180;56000;51.146;17.112;2023-03-01T04:24:55;101539.80;;;-4.30
68952;BMP180;56000;51.146;17.112;2023-03-01T04:27:28;101541.00;;;-4.30
68952;BMP180;56000;51.146;17.112;2023-03-01T04:30:02;101537.00;;;-4.30
68952;BMP180;56000;51.146;17.112;2023-03-01T04:32:35;101541.60;;;-4.32
68952;BMP180;56000;51.146;17.112;2023-03-01T04:35:09;101545.40;;;-4.30
68952;BMP180;56000;51.146;17.112;2023-03-01T04:37:42;101546.80;;;-4.38
68952;BMP180;56000;51.146;17.112;2023-03-01T04:40:17;101537.60;;;-4.40
68952;BMP180;56000;51.146;17.112;2023-03-01T04:42:50;101532.40;;;-4.40
68952;BMP180;56000;51.146;17.112;2023-03-01T04:45:23;101533.20;;;-4.40
68952;BMP180;56000;51.146;17.112;2023-03-01T04:47:56;101538.20;;;-4.40
68952;BMP180;56000;51.146;17.112;2023-03-01T04:50:30;101542.40;;;-4.40
68952;BMP180;56000;51.146;17.112;2023-03-01T04:53:04;101545.00;;;-4.40
68952;BMP180;56000;51.146;17.112;2023-03-01T04:55:37;101547.20;;;-4.40
68952;BMP180;56000;51.146;17.112;2023-03-01T04:58:10;101541.40;;;-4.40
68952;BMP180;56000;51.146;17.112;2023-03-01T05:00:43;101548.60;;;-4.30
68952;BMP180;56000;51.146;17.112;2023-03-01T05:03:16;101548.40;;;-4.30
68952;BMP180;56000;51.146;17.112;2023-03-01T05:05:52;101548.80;;;-4.30
68952;BMP180;56000;51.146;17.112;2023-03-01T05:08:25;101542.40;;;-4.30
68952;BMP180;56000;51.146;17.112;2023-03-01T05:10:58;101538.20;;;-4.30
68952;BMP180;56000;51.146;17.112;2023-03-01T05:13:31;101539.20;;;-4.30
68952;BMP180;56000;51.146;17.112;2023-03-01T05:16:06;101543.00;;;-4.30
68952;BMP180;56000;51.146;17.112;2023-03-01T05:18:43;101542.00;;;-4.30
68952;BMP180;56000;51.146;17.112;2023-03-01T05:21:17;101544.20;;;-4.30
68952;BMP180;56000;51.146;17.112;2023-03-01T05:23:51;101546.40;;;-4.30
68952;BMP180;56000;51.146;17.112;2023-03-01T05:26:24;101546.60;;;-4.30
68952;BMP180;56000;51.146;17.112;2023-03-01T05:29:00;101548.40;;;-4.30
68952;BMP180;56000;51.146;17.112;2023-03-01T05:31:33;101544.80;;;-4.36
68952;BMP180;56000;51.146;17.112;2023-03-01T05:34:06;101537.20;;;-4.40
68952;BMP180;56000;51.146;17.112;2023-03-01T05:36:39;101532.40;;;-4.40
68952;BMP180;56000;51.146;17.112;2023-03-01T05:39:12;101543.20;;;-4.38
68952;BMP180;56000;51.146;17.112;2023-03-01T05:41:45;101543.40;;;-4.36
68952;BMP180;56000;51.146;17.112;2023-03-01T05:44:18;101539.60;;;-4.30
68952;BMP180;56000;51.146;17.112;2023-03-01T05:46:51;101542.60;;;-4.30
68952;BMP180;56000;51.146;17.112;2023-03-01T05:49:25;101547.80;;;-4.28
68952;BMP180;56000;51.146;17.112;2023-03-01T05:51:58;101546.40;;;-4.22
68952;BMP180;56000;51.146;17.112;2023-03-01T05:54:31;101552.60;;;-4.20
68952;BMP180;56000;51.146;17.112;2023-03-01T05:57:04;101549.00;;;-4.10
68952;BMP180;56000;51.146;17.112;2023-03-01T05:59:38;101554.60;;;-4.10
68952;BMP180;56000;51.146;17.112;2023-03-01T06:02:10;101547.40;;;-4.00
68952;BMP180;56000;51.146;17.112;2023-03-01T06:04:44;101558.20;;;-4.00
68952;BMP180;56000;51.146;17.112;2023-03-01T06:07:17;101558.80;;;-3.90
68952;BMP180;56000;51.146;17.112;2023-03-01T06:09:50;101556.60;;;-3.90
68952;BMP180;56000;51.146;17.112;2023-03-01T06:12:23;101556.60;;;-3.80
68952;BMP180;56000;51.146;17.112;2023-03-01T06:14:56;101554.20;;;-3.70
68952;BMP180;56000;51.146;17.112;2023-03-01T06:17:31;101554.80;;;-3.60
68952;BMP180;56000;51.146;17.112;2023-03-01T06:20:07;101556.60;;;-3.50
68952;BMP180;56000;51.146;17.112;2023-03-01T06:22:41;101547.80;;;-3.40
68952;BMP180;56000;51.146;17.112;2023-03-01T06:25:16;101540.00;;;-3.30
68952;BMP180;56000;51.146;17.112;2023-03-01T06:27:50;101539.20;;;-3.20
68952;BMP180;56000;51.146;17.112;2023-03-01T06:30:25;101535.20;;;-3.10
68952;BMP180;56000;51.146;17.112;2023-03-01T06:32:59;101534.20;;;-3.00
68952;BMP180;56000;51.146;17.112;2023-03-01T06:35:33;101529.20;;;-2.90
68952;BMP180;56000;51.146;17.112;2023-03-01T06:38:06;101529.60;;;-2.74
68952;BMP180;56000;51.146;17.112;2023-03-01T06:40:39;101519.40;;;-2.60
68952;BMP180;56000;51.146;17.112;2023-03-01T06:43:13;101518.40;;;-2.50
68952;BMP180;56000;51.146;17.112;2023-03-01T06:45:46;101515.40;;;-2.40
68952;BMP180;56000;51.146;17.112;2023-03-01T06:48:19;101511.40;;;-2.28
68952;BMP180;56000;51.146;17.112;2023-03-01T06:50:52;101515.80;;;-2.12
68952;BMP180;56000;51.146;17.112;2023-03-01T06:53:25;101521.00;;;-2.00
68952;BMP180;56000;51.146;17.112;2023-03-01T06:55:59;101518.20;;;-1.90
68952;BMP180;56000;51.146;17.112;2023-03-01T06:58:33;101522.80;;;-1.80
68952;BMP180;56000;51.146;17.112;2023-03-01T07:01:10;101525.80;;;-1.60
68952;BMP180;56000;51.146;17.112;2023-03-01T07:03:43;101521.00;;;-1.50
68952;BMP180;56000;51.146;17.112;2023-03-01T07:06:17;101526.20;;;-1.40
68952;BMP180;56000;51.146;17.112;2023-03-01T07:08:50;101526.60;;;-1.26
68952;BMP180;56000;51.146;17.112;2023-03-01T07:11:23;101533.60;;;-1.10
68952;BMP180;56000;51.146;17.112;2023-03-01T07:13:56;101531.00;;;-1.00
68952;BMP180;56000;51.146;17.112;2023-03-01T07:16:30;101531.80;;;-0.90
68952;BMP180;56000;51.146;17.112;2023-03-01T07:19:03;101530.20;;;-0.78
68952;BMP180;56000;51.146;17.112;2023-03-01T07:21:37;101529.60;;;-0.60
68952;BMP180;56000;51.146;17.112;2023-03-01T07:24:11;101526.20;;;-0.50
68952;BMP180;56000;51.146;17.112;2023-03-01T07:26:47;101520.60;;;-0.36
68952;BMP180;56000;51.146;17.112;2023-03-01T07:29:21;101517.00;;;-0.22
68952;BMP180;56000;51.146;17.112;2023-03-01T07:31:54;101508.40;;;-0.14
68952;BMP180;56000;51.146;17.112;2023-03-01T07:34:27;101510.80;;;-0.02
68952;BMP180;56000;51.146;17.112;2023-03-01T07:37:00;101516.20;;;0.10
68952;BMP180;56000;51.146;17.112;2023-03-01T07:39:33;101515.00;;;0.24
68952;BMP180;56000;51.146;17.112;2023-03-01T07:42:06;101515.00;;;0.38
68952;BMP180;56000;51.146;17.112;2023-03-01T07:44:39;101511.60;;;0.50
68952;BMP180;56000;51.146;17.112;2023-03-01T07:47:12;101516.20;;;0.60
68952;BMP180;56000;51.146;17.112;2023-03-01T07:49:46;101515.40;;;0.82
68952;BMP180;56000;51.146;17.112;2023-03-01T07:52:19;101512.20;;;1.00
68952;BMP180;56000;51.146;17.112;2023-03-01T07:54:51;101507.40;;;1.12
68952;BMP180;56000;51.146;17.112;2023-03-01T07:57:25;101509.80;;;1.30
68952;BMP180;56000;51.146;17.112;2023-03-01T07:59:58;101503.20;;;1.52
68952;BMP180;56000;51.146;17.112;2023-03-01T08:02:31;101498.20;;;1.74
68952;BMP180;56000;51.146;17.112;2023-03-01T08:05:05;101491.40;;;1.94
68952;BMP180;56000;51.146;17.112;2023-03-01T08:07:38;101493.00;;;2.20
68952;BMP180;56000;51.146;17.112;2023-03-01T08:10:13;101488.80;;;2.60
68952;BMP180;56000;51.146;17.112;2023-03-01T08:12:46;101485.40;;;3.00
68952;BMP180;56000;51.146;17.112;2023-03-01T08:15:20;101489.20;;;3.44
68952;BMP180;56000;51.146;17.112;2023-03-01T08:17:53;101488.60;;;3.90
68952;BMP180;56000;51.146;17.112;2023-03-01T08:20:26;101486.60;;;4.38
68952;BMP180;56000;51.146;17.112;2023-03-01T08:23:00;101485.20;;;4.90
68952;BMP180;56000;51.146;17.112;2023-03-01T08:25:33;101482.20;;;5.36
68952;BMP180;56000;51.146;17.112;2023-03-01T08:28:07;101480.40;;;5.80
68952;BMP180;56000;51.146;17.112;2023-03-01T08:30:40;101470.80;;;6.16
68952;BMP180;56000;51.146;17.112;2023-03-01T08:33:13;101470.20;;;6.62
68952;BMP180;56000;51.146;17.112;2023-03-01T08:35:46;101474.40;;;6.86
68952;BMP180;56000;51.146;17.112;2023-03-01T08:38:19;101474.80;;;7.10
68952;BMP180;56000;51.146;17.112;2023-03-01T08:40:52;101479.40;;;7.46
68952;BMP180;56000;51.146;17.112;2023-03-01T08:43:25;101477.60;;;7.60
68952;BMP180;56000;51.146;17.112;2023-03-01T08:45:58;101479.20;;;7.72
68952;BMP180;56000;51.146;17.112;2023-03-01T08:48:32;101480.20;;;7.98
68952;BMP180;56000;51.146;17.112;2023-03-01T08:51:12;101484.80;;;8.34
68952;BMP180;56000;51.146;17.112;2023-03-01T08:53:47;101487.80;;;8.60
68952;BMP180;56000;51.146;17.112;2023-03-01T08:56:21;101479.20;;;8.88
68952;BMP180;56000;51.146;17.112;2023-03-01T08:58:54;101476.60;;;8.90
68952;BMP180;56000;51.146;17.112;2023-03-01T09:01:27;101476.20;;;9.08
68952;BMP180;56000;51.146;17.112;2023-03-01T09:04:00;101471.60;;;9.44
68952;BMP180;56000;51.146;17.112;2023-03-01T09:06:35;101464.40;;;9.84
68952;BMP180;56000;51.146;17.112;2023-03-01T09:09:14;101462.00;;;10.30
68952;BMP180;56000;51.146;17.112;2023-03-01T09:11:48;101460.40;;;10.70
68952;BMP180;56000;51.146;17.112;2023-03-01T09:14:22;101456.40;;;11.06
68952;BMP180;56000;51.146;17.112;2023-03-01T09:16:55;101458.40;;;11.54
68952;BMP180;56000;51.146;17.112;2023-03-01T09:19:28;101458.80;;;12.02
68952;BMP180;56000;51.146;17.112;2023-03-01T09:22:02;101458.20;;;12.60
68952;BMP180;56000;51.146;17.112;2023-03-01T09:24:35;101448.00;;;13.16
68952;BMP180;56000;51.146;17.112;2023-03-01T09:27:08;101449.00;;;13.40
68952;BMP180;56000;51.146;17.112;2023-03-01T09:29:42;101448.20;;;13.64
68952;BMP180;56000;51.146;17.112;2023-03-01T09:32:16;101443.60;;;13.96
68952;BMP180;56000;51.146;17.112;2023-03-01T09:34:49;101440.00;;;14.26
68952;BMP180;56000;51.146;17.112;2023-03-01T09:37:37;101447.20;;;14.70
68952;BMP180;56000;51.146;17.112;2023-03-01T09:40:15;101455.60;;;15.22
68952;BMP180;56000;51.146;17.112;2023-03-01T09:42:58;101444.00;;;15.56
68952;BMP180;56000;51.146;17.112;2023-03-01T09:45:38;101435.40;;;15.60
68952;BMP180;56000;51.146;17.112;2023-03-01T09:48:18;101430.00;;;15.60
68952;BMP180;56000;51.146;17.112;2023-03-01T09:50:54;101432.00;;;16.12
68952;BMP180;56000;51.146;17.112;2023-03-01T09:53:33;101431.80;;;16.40
68952;BMP180;56000;51.146;17.112;2023-03-01T09:56:19;101430.40;;;16.72
68952;BMP180;56000;51.146;17.112;2023-03-01T09:58:59;101444.60;;;17.32
68952;BMP180;56000;51.146;17.112;2023-03-01T10:01:40;101440.00;;;17.40
68952;BMP180;56000;51.146;17.112;2023-03-01T10:04:35;101448.40;;;17.78
68952;BMP180;56000;51.146;17.112;2023-03-01T10:07:27;101449.80;;;18.50
68952;BMP180;56000;51.146;17.112;2023-03-01T10:10:02;101446.40;;;19.20
68952;BMP180;56000;51.146;17.112;2023-03-01T10:12:40;101444.20;;;19.20
68952;BMP180;56000;51.146;17.112;2023-03-01T10:15:17;101446.20;;;19.50
68952;BMP180;56000;51.146;17.112;2023-03-01T10:17:55;101436.40;;;20.00
68952;BMP180;56000;51.146;17.112;2023-03-01T10:20:42;101438.60;;;19.90
68952;BMP180;56000;51.146;17.112;2023-03-01T10:23:17;101436.20;;;19.60
68952;BMP180;56000;51.146;17.112;2023-03-01T10:26:03;101429.40;;;19.66
68952;BMP180;56000;51.146;17.112;2023-03-01T10:28:50;101426.20;;;20.02
68952;BMP180;56000;51.146;17.112;2023-03-01T10:31:40;101424.80;;;20.50
68952;BMP180;56000;51.146;17.112;2023-03-01T10:34:18;101419.00;;;20.80
68952;BMP180;56000;51.146;17.112;2023-03-01T10:36:55;101419.80;;;21.30
68952;BMP180;56000;51.146;17.112;2023-03-01T10:39:29;101415.40;;;21.04
68952;BMP180;56000;51.146;17.112;2023-03-01T10:42:18;101409.20;;;20.90
68952;BMP180;56000;51.146;17.112;2023-03-01T10:44:52;101407.60;;;21.32
68952;BMP180;56000;51.146;17.112;2023-03-01T10:47:27;101409.20;;;21.84
68952;BMP180;56000;51.146;17.112;2023-03-01T10:50:04;101413.20;;;22.10
68952;BMP180;56000;51.146;17.112;2023-03-01T10:52:41;101412.60;;;22.26
68952;BMP180;56000;51.146;17.112;2023-03-01T10:55:30;101409.60;;;22.20
68952;BMP180;56000;51.146;17.112;2023-03-01T10:58:21;101412.80;;;21.18
68952;BMP180;56000;51.146;17.112;2023-03-01T11:00:57;101414.60;;;20.58
68952;BMP180;56000;51.146;17.112;2023-03-01T11:03:33;101404.00;;;20.72
68952;BMP180;56000;51.146;17.112;2023-03-01T11:06:22;101401.00;;;21.38
68952;BMP180;56000;51.146;17.112;2023-03-01T11:08:55;101400.40;;;22.40
68952;BMP180;56000;51.146;17.112;2023-03-01T11:11:35;101394.40;;;23.10
68952;BMP180;56000;51.146;17.112;2023-03-01T11:14:16;101389.40;;;23.50
68952;BMP180;56000;51.146;17.112;2023-03-01T11:17:08;101384.80;;;24.06
68952;BMP180;56000;51.146;17.112;2023-03-01T11:20:01;101389.20;;;23.92
68952;BMP180;56000;51.146;17.112;2023-03-01T11:22:35;101390.20;;;24.36
68952;BMP180;56000;51.146;17.112;2023-03-01T11:25:14;101392.00;;;24.92
68952;BMP180;56000;51.146;17.112;2023-03-01T11:27:48;101393.40;;;25.10
68952;BMP180;56000;51.146;17.112;2023-03-01T11:30:25;101396.00;;;25.50
68952;BMP180;56000;51.146;17.112;2023-03-01T11:33:13;101391.00;;;25.60
68952;BMP180;56000;51.146;17.112;2023-03-01T11:35:55;101394.20;;;25.54
68952;BMP180;56000;51.146;17.112;2023-03-01T11:38:34;101392.80;;;25.60
68952;BMP180;56000;51.146;17.112;2023-03-01T11:41:15;101393.60;;;25.80
68952;BMP180;56000;51.146;17.112;2023-03-01T11:43:55;101391.40;;;26.00
68952;BMP180;56000;51.146;17.112;2023-03-01T11:46:51;101391.00;;;25.12
68952;BMP180;56000;51.146;17.112;2023-03-01T11:52:52;101396.20;;;24.40
68952;BMP180;56000;51.146;17.112;2023-03-01T11:55:48;101397.60;;;25.10
68952;BMP180;56000;51.146;17.112;2023-03-01T11:58:51;101391.00;;;25.62
68952;BMP180;56000;51.146;17.112;2023-03-01T12:01:42;101390.20;;;25.40
68952;BMP180;56000;51.146;17.112;2023-03-01T12:04:57;101382.40;;;25.44
68952;BMP180;56000;51.146;17.112;2023-03-01T12:07:40;101388.00;;;25.10
68952;BMP180;56000;51.146;17.112;2023-03-01T12:10:25;101382.60;;;25.10
68952;BMP180;56000;51.146;17.112;2023-03-01T12:13:27;101383.60;;;25.82
68952;BMP180;56000;51.146;17.112;2023-03-01T12:16:34;101376.80;;;26.26
68952;BMP180;56000;51.146;17.112;2023-03-01T12:19:26;101363.40;;;26.76
68952;BMP180;56000;51.146;17.112;2023-03-01T12:22:16;101359.60;;;27.10
68952;BMP180;56000;51.146;17.112;2023-03-01T12:25:23;101350.80;;;27.00
68952;BMP180;56000;51.146;17.112;2023-03-01T12:28:30;101355.00;;;27.36
68952;BMP180;56000;51.146;17.112;2023-03-01T12:31:44;101347.80;;;27.66
68952;BMP180;56000;51.146;17.112;2023-03-01T12:34:37;101358.80;;;28.22
68952;BMP180;56000;51.146;17.112;2023-03-01T12:37:29;101360.20;;;28.26
68952;BMP180;56000;51.146;17.112;2023-03-01T12:40:33;101352.00;;;28.76
68952;BMP180;56000;51.146;17.112;2023-03-01T12:43:22;101349.40;;;29.16
68952;BMP180;56000;51.146;17.112;2023-03-01T12:46:08;101349.20;;;29.50
68952;BMP180;56000;51.146;17.112;2023-03-01T12:48:53;101340.80;;;29.30
68952;BMP180;56000;51.146;17.112;2023-03-01T12:51:34;101334.60;;;28.82
68952;BMP180;56000;51.146;17.112;2023-03-01T12:54:19;101331.00;;;28.46
68952;BMP180;56000;51.146;17.112;2023-03-01T12:56:54;101329.00;;;29.00
68952;BMP180;56000;51.146;17.112;2023-03-01T12:59:35;101329.40;;;29.12
68952;BMP180;56000;51.146;17.112;2023-03-01T13:02:18;101321.20;;;28.40
68952;BMP180;56000;51.146;17.112;2023-03-01T13:05:13;101324.60;;;28.10
68952;BMP180;56000;51.146;17.112;2023-03-01T13:07:58;101318.00;;;27.76
68952;BMP180;56000;51.146;17.112;2023-03-01T13:10:38;101319.80;;;26.76
68952;BMP180;56000;51.146;17.112;2023-03-01T13:13:21;101314.60;;;26.10
68952;BMP180;56000;51.146;17.112;2023-03-01T13:15:56;101317.80;;;26.50
68952;BMP180;56000;51.146;17.112;2023-03-01T13:18:34;101315.80;;;26.90
68952;BMP180;56000;51.146;17.112;2023-03-01T13:21:07;101323.60;;;27.40
68952;BMP180;56000;51.146;17.112;2023-03-01T13:23:41;101325.00;;;27.50
68952;BMP180;56000;51.146;17.112;2023-03-01T13:26:19;101325.40;;;27.14
68952;BMP180;56000;51.146;17.112;2023-03-01T13:28:55;101323.60;;;26.40
68952;BMP180;56000;51.146;17.112;2023-03-01T13:32:01;101317.00;;;24.92
68952;BMP180;56000;51.146;17.112;2023-03-01T13:34:56;101313.40;;;23.88
68952;BMP180;56000;51.146;17.112;2023-03-01T13:37:36;101315.60;;;23.00
68952;BMP180;56000;51.146;17.112;2023-03-01T13:40:59;101317.00;;;21.94
68952;BMP180;56000;51.146;17.112;2023-03-01T13:43:36;101313.20;;;19.46
68952;BMP180;56000;51.146;17.112;2023-03-01T13:46:19;101314.80;;;17.50
68952;BMP180;56000;51.146;17.112;2023-03-01T13:48:56;101305.40;;;15.60
68952;BMP180;56000;51.146;17.112;2023-03-01T13:51:31;101302.80;;;14.08
68952;BMP180;56000;51.146;17.112;2023-03-01T13:54:04;101303.20;;;12.96
68952;BMP180;56000;51.146;17.112;2023-03-01T13:56:39;101300.00;;;12.02
68952;BMP180;56000;51.146;17.112;2023-03-01T13:59:22;101304.80;;;11.24
68952;BMP180;56000;51.146;17.112;2023-03-01T14:02:00;101299.00;;;10.46
68952;BMP180;56000;51.146;17.112;2023-03-01T14:04:34;101290.00;;;10.00
68952;BMP180;56000;51.146;17.112;2023-03-01T14:07:21;101285.80;;;9.60
68952;BMP180;56000;51.146;17.112;2023-03-01T14:09:58;101284.40;;;9.30
68952;BMP180;56000;51.146;17.112;2023-03-01T14:12:46;101279.60;;;9.00
68952;BMP180;56000;51.146;17.112;2023-03-01T14:15:29;101280.00;;;8.70
68952;BMP180;56000;51.146;17.112;2023-03-01T14:18:10;101273.60;;;8.50
68952;BMP180;56000;51.146;17.112;2023-03-01T14:20:46;101271.40;;;8.40
68952;BMP180;56000;51.146;17.112;2023-03-01T14:23:25;101265.20;;;8.30
68952;BMP180;56000;51.146;17.112;2023-03-01T14:26:00;101258.60;;;8.20
68952;BMP180;56000;51.146;17.112;2023-03-01T14:28:34;101259.20;;;8.02
68952;BMP180;56000;51.146;17.112;2023-03-01T14:31:38;101254.40;;;7.80
68952;BMP180;56000;51.146;17.112;2023-03-01T14:34:25;101250.60;;;7.60
68952;BMP180;56000;51.146;17.112;2023-03-01T14:37:11;101247.00;;;7.50
68952;BMP180;56000;51.146;17.112;2023-03-01T14:39:44;101244.80;;;7.40
68952;BMP180;56000;51.146;17.112;2023-03-01T14:42:18;101245.80;;;7.30
68952;BMP180;56000;51.146;17.112;2023-03-01T14:44:55;101248.40;;;7.28
68952;BMP180;56000;51.146;17.112;2023-03-01T14:47:33;101246.40;;;7.20